Time;durP1;ratioP1;P1;durP2;ratioP2;P2;SDS_P1;SDS_P2;PMS_P1;PMS_P2;Temp;Humidity;BMP_temperature;BMP_pressure;BME280_temperature;BME280_humidity;BME280_pressure;Samples;Min_cycle;Max_cycle;Signal;HPM_P1;HPM_P2
2022/08/14 00:00:13;;;;;;;4.30;3.58;;;23.40;72.20;;;;;;4247932;27;20083;-82
2022/08/14 00:02:14;;;;;;;4.80;3.38;;;23.40;72.70;;;;;;4248950;27;20050;-83
2022/08/14 00:04:15;;;;;;;7.07;3.03;;;23.40;72.90;;;;;;4247580;27;20491;-83
2022/08/14 00:06:16;;;;;;;26.08;4.75;;;23.30;73.10;;;;;;4247689;27;20207;-83
2022/08/14 00:08:17;;;;;;;10.13;4.45;;;23.30;73.40;;;;;;4248027;27;20677;-83
2022/08/14 00:10:19;;;;;;;4.10;3.15;;;23.30;73.70;;;;;;4248154;27;20055;-83
2022/08/14 00:12:23;;;;;;;6.50;3.83;;;23.30;74.00;;;;;;4248744;27;20513;-82
2022/08/14 00:14:26;;;;;;;5.50;3.10;;;23.20;75.00;;;;;;4248937;27;20047;-83
2022/08/14 00:16:26;;;;;;;6.78;3.70;;;23.10;74.60;;;;;;4247263;27;20055;-82
2022/08/14 00:18:31;;;;;;;8.25;3.30;;;23.10;75.00;;;;;;4248652;27;20039;-82
2022/08/14 00:20:34;;;;;;;6.35;3.35;;;23.10;75.40;;;;;;4230245;28;20515;-81
2022/08/14 00:22:35;;;;;;;6.05;3.75;;;23.00;75.80;;;;;;4248576;27;20483;-82
2022/08/14 00:24:35;;;;;;;6.40;4.03;;;23.00;76.10;;;;;;4248004;27;20098;-82
2022/08/14 00:26:36;;;;;;;5.55;4.30;;;23.00;76.40;;;;;;4248554;27;20039;-82
2022/08/14 00:28:40;;;;;;;7.85;4.22;;;22.90;76.70;;;;;;4246978;27;20085;-82
2022/08/14 00:30:41;;;;;;;5.80;3.95;;;22.90;77.10;;;;;;4248255;27;20507;-82
2022/08/14 00:32:42;;;;;;;5.05;4.15;;;22.90;77.50;;;;;;4247574;27;20050;-83
2022/08/14 00:34:46;;;;;;;7.05;4.07;;;22.90;77.70;;;;;;4247633;27;20136;-82
2022/08/14 00:36:46;;;;;;;8.23;4.60;;;22.90;78.20;;;;;;4248674;27;20042;-82
2022/08/14 00:38:47;;;;;;;9.32;4.40;;;22.80;78.30;;;;;;4247153;27;20582;-82
2022/08/14 00:40:48;;;;;;;9.52;4.25;;;22.80;78.50;;;;;;4249001;27;20053;-82
2022/08/14 00:42:49;;;;;;;6.80;4.50;;;22.80;78.90;;;;;;4249028;27;20035;-82
2022/08/14 00:44:50;;;;;;;5.82;4.30;;;22.80;79.20;;;;;;4247546;27;20080;-83
2022/08/14 00:46:52;;;;;;;8.25;3.95;;;22.70;79.40;;;;;;4248842;27;20047;-83
2022/08/14 00:48:53;;;;;;;9.00;4.35;;;22.70;79.70;;;;;;4248832;27;20039;-83
2022/08/14 00:50:58;;;;;;;5.85;4.00;;;22.70;80.00;;;;;;4248755;27;20047;-83
2022/08/14 00:53:00;;;;;;;6.07;4.32;;;22.70;80.10;;;;;;4247273;27;20039;-83
2022/08/14 00:55:01;;;;;;;7.95;4.35;;;22.70;80.30;;;;;;4230601;28;20047;-82
2022/08/14 00:57:02;;;;;;;7.38;5.20;;;22.70;80.50;;;;;;4230262;28;20051;-83
2022/08/14 00:59:03;;;;;;;10.30;4.53;;;22.60;80.90;;;;;;4230530;28;20050;-83
2022/08/14 01:01:10;;;;;;;5.72;3.58;;;22.60;81.20;;;;;;4231654;28;20458;-83
2022/08/14 01:03:12;;;;;;;5.50;4.53;;;22.60;81.60;;;;;;4229958;28;20044;-83
2022/08/14 01:05:22;;;;;;;8.23;4.30;;;22.50;81.70;;;;;;4232015;28;20570;-83
2022/08/14 01:07:28;;;;;;;9.52;4.68;;;22.50;81.90;;;;;;4231797;27;20051;-82
2022/08/14 01:09:29;;;;;;;9.50;4.47;;;22.50;82.20;;;;;;4248538;27;20035;-83
2022/08/14 01:11:30;;;;;;;6.72;4.30;;;22.50;82.30;;;;;;4247047;27;20050;-83
2022/08/14 01:13:35;;;;;;;8.10;4.80;;;22.40;82.50;;;;;;4248823;27;20043;-82
2022/08/14 01:15:36;;;;;;;8.98;4.57;;;22.40;82.80;;;;;;4248518;27;20499;-82
2022/08/14 01:22:17;;;;;;;14.10;5.53;;;22.30;83.20;;;;;;4248420;27;20055;-83
2022/08/14 01:24:20;;;;;;;8.32;5.07;;;22.30;83.40;;;;;;4236345;27;20043;-83
2022/08/14 01:26:23;;;;;;;9.32;4.45;;;22.30;83.40;;;;;;4231296;28;20054;-83
2022/08/14 01:28:30;;;;;;;5.97;4.68;;;22.30;83.60;;;;;;4231199;28;20047;-82
2022/08/14 01:30:32;;;;;;;13.07;5.40;;;22.30;83.70;;;;;;4231254;28;20039;-82
2022/08/14 01:32:33;;;;;;;6.78;5.22;;;22.30;83.80;;;;;;4231331;28;20056;-82
2022/08/14 01:34:34;;;;;;;7.93;4.57;;;22.20;84.00;;;;;;4231239;28;20044;-82
2022/08/14 01:36:37;;;;;;;7.32;5.20;;;22.20;84.60;;;;;;4230598;28;20043;-83
2022/08/14 01:38:41;;;;;;;9.52;5.18;;;22.20;84.20;;;;;;4231160;28;20040;-82
2022/08/14 01:40:46;;;;;;;9.38;5.50;;;22.20;84.30;;;;;;4242562;27;20085;-83
2022/08/14 01:42:48;;;;;;;11.50;5.05;;;22.20;84.60;;;;;;4245774;27;20050;-83
2022/08/14 01:44:51;;;;;;;8.95;5.30;;;22.10;84.50;;;;;;4255061;27;20074;-83
2022/08/14 01:46:53;;;;;;;12.70;4.95;;;22.10;84.60;;;;;;4246655;27;20132;-83
2022/08/14 01:48:55;;;;;;;9.15;5.10;;;22.10;84.80;;;;;;4260688;27;20424;-83
2022/08/14 01:50:56;;;;;;;6.50;5.35;;;22.10;84.90;;;;;;4248781;27;20058;-83
2022/08/14 01:52:57;;;;;;;7.72;4.72;;;22.10;85.10;;;;;;4233126;27;20075;-83
2022/08/14 01:54:57;;;;;;;9.15;5.47;;;22.10;85.20;;;;;;4246134;27;20099;-83
2022/08/14 01:56:58;;;;;;;7.47;5.22;;;22.10;85.50;;;;;;4246585;27;20482;-83
2022/08/14 01:58:59;;;;;;;11.02;5.00;;;22.10;85.40;;;;;;4264745;27;20083;-83
2022/08/14 02:01:00;;;;;;;11.23;5.65;;;22.10;85.60;;;;;;4265315;27;20105;-83
2022/08/14 02:03:00;;;;;;;7.95;5.10;;;22.10;85.70;;;;;;4265505;27;20035;-83
2022/08/14 02:05:01;;;;;;;18.73;6.75;;;22.10;85.80;;;;;;4229861;28;20043;-83
2022/08/14 02:07:04;;;;;;;9.77;5.25;;;22.10;85.80;;;;;;4264756;27;20095;-83
2022/08/14 02:09:07;;;;;;;11.65;5.72;;;22.10;86.10;;;;;;4237366;27;20061;-83
2022/08/14 02:11:17;;;;;;;9.40;5.78;;;22.00;86.10;;;;;;4264612;27;20121;-83
2022/08/14 02:13:19;;;;;;;6.95;5.32;;;22.00;86.40;;;;;;4246968;27;20132;-83
2022/08/14 02:15:20;;;;;;;10.52;5.40;;;22.00;86.40;;;;;;4246536;28;20456;-83
2022/08/14 02:17:22;;;;;;;11.05;5.32;;;22.00;86.60;;;;;;4246044;28;20126;-83
2022/08/14 02:19:28;;;;;;;8.85;5.53;;;22.00;86.80;;;;;;4212272;28;20048;-83
2022/08/14 02:21:31;;;;;;;7.40;5.60;;;21.90;87.10;;;;;;4229573;28;20061;-83
2022/08/14 02:23:32;;;;;;;9.90;5.47;;;21.90;87.30;;;;;;4247700;28;20484;-82
2022/08/14 02:25:33;;;;;;;12.50;5.88;;;21.90;87.60;;;;;;4247702;28;20039;-83
2022/08/14 02:27:35;;;;;;;8.10;5.82;;;21.90;87.70;;;;;;4213045;28;20052;-83
2022/08/14 02:29:36;;;;;;;7.45;5.70;;;21.90;87.90;;;;;;4264794;27;20228;-83
2022/08/14 02:31:40;;;;;;;9.32;6.15;;;21.80;88.00;;;;;;4229155;28;20047;-83
2022/08/14 02:33:42;;;;;;;8.68;6.20;;;21.80;88.20;;;;;;4264804;27;20105;-83
2022/08/14 02:35:43;;;;;;;10.48;5.90;;;21.80;88.30;;;;;;4245877;28;20043;-82
2022/08/14 02:37:46;;;;;;;7.68;5.28;;;21.80;88.60;;;;;;4264538;27;20509;-82
2022/08/14 02:39:46;;;;;;;8.18;5.88;;;21.70;88.70;;;;;;4264511;27;20039;-82
2022/08/14 02:41:50;;;;;;;8.05;6.05;;;21.70;88.90;;;;;;4245925;28;20044;-83
2022/08/14 02:43:50;;;;;;;13.05;6.78;;;21.60;89.00;;;;;;4232308;28;20044;-83
2022/08/14 02:45:51;;;;;;;9.43;6.07;;;21.60;89.10;;;;;;4247827;28;20062;-83
2022/08/14 02:47:52;;;;;;;7.78;5.32;;;21.60;89.30;;;;;;4247446;28;20479;-82
2022/08/14 02:49:53;;;;;;;10.77;6.05;;;21.50;89.40;;;;;;4229320;28;20048;-83
2022/08/14 02:51:56;;;;;;;8.50;5.88;;;21.60;89.60;;;;;;4228635;28;20163;-82
2022/08/14 02:53:58;;;;;;;8.95;5.90;;;21.50;89.70;;;;;;4213697;28;20097;-82
2022/08/14 02:56:01;;;;;;;8.80;5.55;;;21.50;89.80;;;;;;4250685;27;20054;-82
2022/08/14 02:58:04;;;;;;;10.98;5.88;;;21.40;89.90;;;;;;4215450;28;20558;-82
2022/08/14 03:00:05;;;;;;;14.68;5.90;;;21.40;90.00;;;;;;4250783;27;20399;-82
2022/08/14 03:02:07;;;;;;;8.85;5.60;;;21.30;90.00;;;;;;4233330;27;20051;-82
2022/08/14 03:04:09;;;;;;;10.10;5.32;;;21.30;90.10;;;;;;4267711;27;20197;-82
2022/08/14 03:06:12;;;;;;;7.38;5.05;;;21.20;90.10;;;;;;4267336;27;20057;-82
2022/08/14 03:08:13;;;;;;;7.72;6.18;;;21.20;90.10;;;;;;4267799;27;20046;-83
2022/08/14 03:10:14;;;;;;;8.07;5.90;;;21.20;90.10;;;;;;4267592;27;20038;-83
2022/08/14 03:12:15;;;;;;;9.05;5.80;;;21.20;90.20;;;;;;4267040;27;20034;-82
2022/08/14 03:14:17;;;;;;;9.07;6.45;;;21.20;90.20;;;;;;4248976;27;20079;-82
2022/08/14 03:16:20;;;;;;;8.98;6.00;;;21.20;90.30;;;;;;4248801;27;20035;-82
2022/08/14 03:18:22;;;;;;;6.53;5.25;;;21.20;90.50;;;;;;4267182;27;20078;-82
2022/08/14 03:20:23;;;;;;;11.68;6.40;;;21.10;90.40;;;;;;4266662;27;20050;-82
2022/08/14 03:22:24;;;;;;;7.63;5.82;;;21.10;90.50;;;;;;4267408;27;20054;-82
2022/08/14 03:24:25;;;;;;;8.48;6.35;;;21.00;90.70;;;;;;4267272;27;20531;-82
2022/08/14 03:26:26;;;;;;;9.70;6.65;;;21.00;90.80;;;;;;4267295;27;20046;-82
2022/08/14 03:28:28;;;;;;;10.68;6.18;;;21.00;90.90;;;;;;4266838;27;20398;-82
2022/08/14 03:30:30;;;;;;;8.25;5.78;;;20.90;91.00;;;;;;4267282;27;20051;-82
2022/08/14 03:32:32;;;;;;;10.10;6.70;;;20.90;91.10;;;;;;4244098;27;20079;-82
2022/08/14 03:34:32;;;;;;;10.95;6.60;;;20.90;91.10;;;;;;4231932;28;20079;-82
2022/08/14 03:36:35;;;;;;;9.88;5.70;;;21.00;91.20;;;;;;4249897;27;20046;-82
2022/08/14 03:38:41;;;;;;;11.68;6.28;;;20.90;91.30;;;;;;4249971;27;20115;-82
2022/08/14 03:40:43;;;;;;;12.15;6.60;;;20.90;91.30;;;;;;4214829;28;20047;-82
2022/08/14 03:42:44;;;;;;;9.48;6.40;;;20.90;91.40;;;;;;4240587;27;20046;-82
2022/08/14 03:44:44;;;;;;;10.10;6.43;;;20.90;91.40;;;;;;4248353;27;20055;-83
2022/08/14 03:46:45;;;;;;;9.32;6.07;;;20.90;91.50;;;;;;4248125;27;20491;-83
2022/08/14 03:48:47;;;;;;;7.95;6.18;;;20.80;91.50;;;;;;4267002;27;20068;-83
2022/08/14 03:50:53;;;;;;;10.85;6.15;;;20.80;91.60;;;;;;4266855;27;20038;-83
2022/08/14 03:52:53;;;;;;;13.30;7.03;;;20.80;91.60;;;;;;4266962;27;20042;-83
2022/08/14 03:54:55;;;;;;;10.32;6.40;;;20.90;91.60;;;;;;4247786;27;20057;-82
2022/08/14 03:56:59;;;;;;;13.63;7.47;;;20.80;91.60;;;;;;4266541;27;20074;-83
2022/08/14 03:59:06;;;;;;;8.18;6.30;;;20.80;91.70;;;;;;4248302;27;20118;-82
2022/08/14 04:01:08;;;;;;;9.00;6.68;;;20.80;91.70;;;;;;4266478;27;20047;-83
2022/08/14 04:03:13;;;;;;;8.27;5.93;;;20.80;91.80;;;;;;4256245;27;20432;-83
2022/08/14 04:05:14;;;;;;;10.35;5.85;;;20.80;91.80;;;;;;4248566;27;20043;-83
2022/08/14 04:07:16;;;;;;;8.02;5.70;;;20.70;91.80;;;;;;4213757;28;20139;-83
2022/08/14 04:09:17;;;;;;;9.05;6.45;;;20.70;91.80;;;;;;4230999;28;20055;-83
2022/08/14 04:11:21;;;;;;;7.60;6.30;;;20.70;91.90;;;;;;4231206;28;20506;-82
2022/08/14 04:13:21;;;;;;;14.98;6.40;;;20.70;92.00;;;;;;4230578;28;20480;-83
2022/08/14 04:15:23;;;;;;;8.38;6.40;;;20.70;92.00;;;;;;4230354;28;20108;-83
2022/08/14 04:17:25;;;;;;;10.20;6.78;;;20.70;92.00;;;;;;4213842;28;20036;-82
2022/08/14 04:19:25;;;;;;;11.30;6.35;;;20.70;92.00;;;;;;4231721;28;20050;-82
2022/08/14 04:21:28;;;;;;;12.23;6.50;;;20.70;92.00;;;;;;4231517;28;20052;-82
2022/08/14 04:23:29;;;;;;;7.45;5.55;;;20.70;92.00;;;;;;4230587;28;21141;-83
2022/08/14 04:25:35;;;;;;;8.57;6.03;;;20.60;92.00;;;;;;4262960;27;20078;-83
2022/08/14 04:27:37;;;;;;;9.40;6.20;;;20.70;92.00;;;;;;4266607;27;20406;-83
2022/08/14 04:29:40;;;;;;;8.75;5.68;;;20.60;91.90;;;;;;4266421;27;20117;-83
2022/08/14 04:31:41;;;;;;;11.57;5.57;;;20.70;91.90;;;;;;4230779;28;20421;-83
2022/08/14 04:33:42;;;;;;;8.20;5.22;;;20.70;91.80;;;;;;4247481;27;20058;-82
2022/08/14 04:35:43;;;;;;;8.07;5.53;;;20.70;91.70;;;;;;4247431;27;20433;-82
2022/08/14 04:44:40;;;;;;;;;;;20.70;91.40;;;;;;4266581;27;20517;-82
2022/08/14 04:48:11;;;;;;;6.72;5.40;;;20.70;91.90;;;;;;4239522;27;19919;-83
2022/08/14 04:49:03;;;;;;;7.97;6.03;;;20.70;91.30;;;;;;4248680;27;20053;-83
2022/08/14 04:51:07;;;;;;;6.95;5.68;;;20.70;91.40;;;;;;4249119;27;20039;-83
2022/08/14 04:53:11;;;;;;;11.13;5.82;;;20.70;91.50;;;;;;4249136;27;20078;-82
2022/08/14 04:55:13;;;;;;;7.97;6.03;;;20.70;91.60;;;;;;4230934;28;20118;-82
2022/08/14 04:57:14;;;;;;;9.35;6.60;;;20.70;91.60;;;;;;4248542;27;20050;-83
2022/08/14 04:59:15;;;;;;;10.68;6.43;;;20.80;91.70;;;;;;4249027;27;20047;-83
2022/08/14 05:01:16;;;;;;;11.50;6.13;;;20.80;91.80;;;;;;4264261;27;20114;-83
2022/08/14 05:03:22;;;;;;;8.02;5.65;;;20.80;91.80;;;;;;4247876;27;20083;-83
2022/08/14 05:05:23;;;;;;;10.15;6.82;;;20.80;91.90;;;;;;4266245;27;20042;-83
2022/08/14 05:07:24;;;;;;;9.65;6.35;;;20.80;91.90;;;;;;4265682;27;20047;-83
2022/08/14 05:09:25;;;;;;;11.95;6.50;;;20.80;92.00;;;;;;4247770;27;20541;-83
2022/08/14 05:11:26;;;;;;;12.65;6.88;;;20.70;92.10;;;;;;4239164;27;20096;-83
2022/08/14 05:13:29;;;;;;;12.43;6.72;;;20.70;92.20;;;;;;4249018;27;20047;-83
2022/08/14 05:15:35;;;;;;;9.60;7.13;;;20.80;92.20;;;;;;4230535;28;20499;-83
2022/08/14 05:17:41;;;;;;;8.85;6.53;;;20.70;92.20;;;;;;4248510;27;20082;-82
2022/08/14 05:19:43;;;;;;;15.70;7.70;;;20.70;92.30;;;;;;4248808;27;20114;-82
2022/08/14 05:21:43;;;;;;;11.20;7.32;;;20.70;92.20;;;;;;4230275;28;20096;-82
2022/08/14 05:23:44;;;;;;;10.98;6.72;;;20.70;92.20;;;;;;4229853;28;20048;-82
2022/08/14 05:25:47;;;;;;;12.07;7.32;;;20.70;92.30;;;;;;4230729;28;20051;-82
2022/08/14 05:27:47;;;;;;;10.18;7.18;;;20.70;92.30;;;;;;4239822;27;20051;-82
2022/08/14 05:29:48;;;;;;;11.60;6.85;;;20.70;92.30;;;;;;4246583;27;20082;-82
2022/08/14 05:31:49;;;;;;;7.53;5.93;;;20.80;92.30;;;;;;4247004;27;20117;-82
2022/08/14 05:33:50;;;;;;;9.77;6.75;;;20.80;92.20;;;;;;4264562;27;20050;-82
2022/08/14 05:35:53;;;;;;;14.00;6.75;;;20.90;92.20;;;;;;4265243;27;20114;-82
2022/08/14 05:37:54;;;;;;;11.48;6.90;;;21.00;92.20;;;;;;4265170;27;20111;-83
2022/08/14 05:39:54;;;;;;;10.93;6.93;;;21.00;92.10;;;;;;4265122;27;20121;-83
2022/08/14 05:41:56;;;;;;;8.85;6.55;;;21.10;92.10;;;;;;4245364;27;20039;-83
2022/08/14 05:43:57;;;;;;;9.82;6.20;;;21.10;92.10;;;;;;4246534;27;20049;-83
2022/08/14 05:45:59;;;;;;;15.25;7.65;;;21.20;92.10;;;;;;4247757;27;20047;-83
2022/08/14 05:48:04;;;;;;;12.25;6.35;;;21.30;92.10;;;;;;4247781;27;20448;-82
2022/08/14 05:50:07;;;;;;;14.77;6.50;;;21.40;92.10;;;;;;4229769;28;20071;-83
2022/08/14 05:52:07;;;;;;;9.18;6.40;;;21.50;92.20;;;;;;4247674;27;20510;-82
2022/08/14 05:54:08;;;;;;;10.93;6.38;;;21.50;92.10;;;;;;4246477;27;20050;-82
2022/08/14 05:56:09;;;;;;;8.45;6.20;;;21.50;92.10;;;;;;4246564;27;20126;-82
2022/08/14 05:58:10;;;;;;;8.80;6.45;;;21.50;92.00;;;;;;4247677;27;20414;-83
2022/08/14 06:00:11;;;;;;;10.38;6.30;;;21.60;92.00;;;;;;4216367;28;20565;-83
2022/08/14 06:02:12;;;;;;;10.55;6.28;;;21.60;91.90;;;;;;4230659;28;20043;-83
2022/08/14 06:04:13;;;;;;;11.10;6.57;;;21.70;91.90;;;;;;4230623;28;20090;-83
2022/08/14 06:06:13;;;;;;;12.55;7.35;;;21.70;91.90;;;;;;4229521;28;20515;-83
2022/08/14 06:08:19;;;;;;;11.82;6.85;;;21.80;91.80;;;;;;4229281;28;20039;-83
2022/08/14 06:10:20;;;;;;;10.88;6.70;;;21.80;91.90;;;;;;4231006;28;20054;-82
2022/08/14 06:12:22;;;;;;;9.75;6.47;;;21.90;91.70;;;;;;4226727;28;20051;-83
2022/08/14 06:14:23;;;;;;;11.93;6.82;;;22.00;91.80;;;;;;4247587;27;20043;-82
2022/08/14 06:16:24;;;;;;;9.95;6.45;;;22.00;91.70;;;;;;4246496;27;20043;-83
2022/08/14 06:18:25;;;;;;;11.80;7.07;;;22.20;91.60;;;;;;4247612;27;20590;-84
2022/08/14 06:20:29;;;;;;;10.73;6.47;;;22.20;91.60;;;;;;4233756;28;20085;-83
2022/08/14 06:22:30;;;;;;;11.32;6.47;;;22.20;91.50;;;;;;4230100;28;20472;-82
2022/08/14 06:24:30;;;;;;;7.13;5.43;;;22.40;91.50;;;;;;4229291;28;20082;-83
2022/08/14 06:26:31;;;;;;;8.90;6.32;;;22.50;91.40;;;;;;4229438;28;20056;-82
2022/08/14 06:28:32;;;;;;;9.43;5.93;;;22.50;91.40;;;;;;4229587;28;20135;-82
2022/08/14 06:30:34;;;;;;;10.07;5.78;;;22.60;91.60;;;;;;4233717;28;20050;-82
2022/08/14 06:32:35;;;;;;;10.05;6.57;;;22.70;91.30;;;;;;4233788;28;20055;-83
2022/08/14 06:34:38;;;;;;;9.93;6.28;;;22.70;91.30;;;;;;4233489;28;20142;-83
2022/08/14 06:36:39;;;;;;;11.02;6.47;;;22.80;91.30;;;;;;4232063;28;20135;-83
2022/08/14 06:38:40;;;;;;;7.65;5.20;;;22.90;91.20;;;;;;4231993;28;20133;-84
2022/08/14 06:40:40;;;;;;;8.48;6.40;;;23.00;91.10;;;;;;4233590;27;20043;-84
2022/08/14 06:42:41;;;;;;;9.35;5.60;;;23.10;91.00;;;;;;4249072;27;20499;-84
2022/08/14 06:44:42;;;;;;;8.68;6.40;;;23.10;90.80;;;;;;4255975;27;20054;-82
2022/08/14 06:46:43;;;;;;;9.07;5.68;;;23.20;90.70;;;;;;4248756;27;20461;-83
2022/08/14 06:48:43;;;;;;;7.72;5.70;;;23.30;90.70;;;;;;4248978;27;20043;-83
2022/08/14 06:50:45;;;;;;;10.38;6.18;;;23.40;90.60;;;;;;4248529;27;20055;-82
2022/08/14 06:52:47;;;;;;;10.30;6.30;;;23.40;90.50;;;;;;4248957;27;20043;-83
2022/08/14 06:54:48;;;;;;;12.10;6.53;;;23.50;90.40;;;;;;4248488;27;20373;-83
2022/08/14 06:56:49;;;;;;;7.82;5.72;;;23.60;90.30;;;;;;4267031;27;20043;-82
2022/08/14 06:58:49;;;;;;;7.90;6.38;;;23.60;90.20;;;;;;4232244;28;20104;-82
2022/08/14 07:05:47;;;;;;;10.23;6.53;;;23.60;89.50;;;;;;4231740;28;20051;-83
2022/08/14 07:07:51;;;;;;;10.63;6.47;;;23.70;89.30;;;;;;4250705;27;20049;-83
2022/08/14 07:09:52;;;;;;;10.82;6.82;;;23.70;89.10;;;;;;4250744;27;20054;-83
2022/08/14 07:11:54;;;;;;;17.75;7.43;;;23.80;88.90;;;;;;4231890;28;20039;-83
2022/08/14 07:13:55;;;;;;;8.68;5.65;;;23.90;88.70;;;;;;4232002;28;20035;-83
2022/08/14 07:15:57;;;;;;;12.90;6.50;;;24.00;88.50;;;;;;4232303;28;20619;-83
2022/08/14 07:17:58;;;;;;;7.38;5.90;;;24.10;88.20;;;;;;4262942;27;20114;-83
2022/08/14 07:19:59;;;;;;;9.10;5.18;;;24.20;87.80;;;;;;4249031;27;20076;-83
2022/08/14 07:22:00;;;;;;;9.30;5.70;;;24.30;87.60;;;;;;4248885;27;20047;-83
2022/08/14 07:24:04;;;;;;;8.98;5.80;;;24.40;87.30;;;;;;4249167;27;20058;-83
2022/08/14 07:26:05;;;;;;;12.40;5.88;;;24.60;86.90;;;;;;4267419;27;20561;-83
2022/08/14 07:28:15;;;;;;;9.90;5.75;;;24.60;86.50;;;;;;4235669;27;20047;-83
2022/08/14 07:30:17;;;;;;;8.18;5.97;;;24.80;86.80;;;;;;4249983;27;20042;-83
2022/08/14 07:32:18;;;;;;;8.77;5.15;;;24.80;86.30;;;;;;4232103;28;20040;-83
2022/08/14 07:34:18;;;;;;;7.95;5.65;;;25.00;86.00;;;;;;4249956;27;20131;-83
2022/08/14 07:36:21;;;;;;;6.57;5.80;;;25.10;85.60;;;;;;4250004;27;20479;-83
2022/08/14 07:38:23;;;;;;;7.65;4.82;;;25.30;85.10;;;;;;4249920;27;20050;-83
2022/08/14 07:40:24;;;;;;;8.32;5.68;;;25.40;84.90;;;;;;4230873;28;20055;-83
2022/08/14 07:42:25;;;;;;;5.57;4.90;;;25.60;84.20;;;;;;4234707;27;20053;-83
2022/08/14 07:44:26;;;;;;;9.57;4.68;;;25.70;83.90;;;;;;4248236;27;20494;-83
2022/08/14 07:46:26;;;;;;;5.70;4.55;;;25.80;83.40;;;;;;4248250;27;20089;-82
2022/08/14 07:48:29;;;;;;;6.38;4.22;;;26.00;82.80;;;;;;4248175;27;20048;-82
2022/08/14 07:50:31;;;;;;;6.65;5.07;;;26.10;83.10;;;;;;4246878;27;20047;-83
2022/08/14 07:52:33;;;;;;;6.35;4.78;;;26.10;81.70;;;;;;4249774;27;20039;-83
2022/08/14 07:54:34;;;;;;;7.13;4.82;;;26.10;81.50;;;;;;4249495;27;20039;-83
2022/08/14 07:56:35;;;;;;;6.80;4.85;;;26.30;81.30;;;;;;4249651;27;20051;-83
2022/08/14 07:58:37;;;;;;;5.60;4.07;;;26.40;80.90;;;;;;4249626;27;20039;-83
2022/08/14 08:00:37;;;;;;;6.95;4.85;;;26.50;80.60;;;;;;4249657;27;20503;-83
2022/08/14 08:02:40;;;;;;;7.95;4.28;;;26.60;80.10;;;;;;4231594;27;20055;-83
2022/08/14 08:04:45;;;;;;;6.75;4.50;;;26.80;79.60;;;;;;4249879;27;20054;-82
2022/08/14 08:06:46;;;;;;;9.43;5.03;;;27.00;78.60;;;;;;4249614;27;20074;-83
2022/08/14 08:08:48;;;;;;;5.40;4.63;;;27.10;78.40;;;;;;4249642;27;20036;-83
2022/08/14 08:10:54;;;;;;;5.45;4.10;;;27.20;77.80;;;;;;4252321;27;20497;-83
2022/08/14 08:13:03;;;;;;;5.93;4.95;;;27.30;77.60;;;;;;4267245;27;20047;-82
2022/08/14 08:15:04;;;;;;;6.03;4.38;;;27.40;77.00;;;;;;4248214;27;20130;-82
2022/08/14 08:17:06;;;;;;;7.90;4.53;;;27.50;76.80;;;;;;4266760;27;20073;-83
2022/08/14 08:19:07;;;;;;;10.63;4.47;;;27.50;76.20;;;;;;4266549;27;20038;-82
2022/08/14 08:21:10;;;;;;;7.57;4.10;;;27.40;75.60;;;;;;4248238;27;20043;-83
2022/08/14 08:23:15;;;;;;;5.25;4.25;;;27.40;75.40;;;;;;4247526;27;20527;-83
2022/08/14 08:25:19;;;;;;;8.55;4.28;;;27.50;75.20;;;;;;4248126;27;20563;-83
2022/08/14 08:27:19;;;;;;;6.47;4.35;;;27.60;75.30;;;;;;4266548;27;20045;-83
2022/08/14 08:29:22;;;;;;;5.97;4.28;;;27.80;75.10;;;;;;4254170;27;20071;-83
2022/08/14 08:31:25;;;;;;;9.73;4.70;;;28.00;74.70;;;;;;4248843;27;20096;-83
2022/08/14 08:33:29;;;;;;;6.40;4.88;;;28.10;73.80;;;;;;4249211;27;20503;-83
2022/08/14 08:35:34;;;;;;;6.85;4.80;;;28.20;73.10;;;;;;4249345;27;20053;-82
2022/08/14 08:37:36;;;;;;;8.05;4.22;;;28.20;72.20;;;;;;4231045;28;20031;-83
2022/08/14 08:39:47;;;;;;;11.10;4.85;;;28.10;72.00;;;;;;4251933;27;20047;-82
2022/08/14 08:41:48;;;;;;;4.20;3.55;;;28.20;71.40;;;;;;4266134;27;20050;-83
2022/08/14 08:43:49;;;;;;;9.68;4.55;;;28.40;72.20;;;;;;4247923;27;20047;-83
2022/08/14 08:45:59;;;;;;;8.55;3.78;;;28.60;72.00;;;;;;4266023;27;20062;-83
2022/08/14 08:48:02;;;;;;;5.60;3.80;;;28.70;70.80;;;;;;4266410;27;20035;-83
2022/08/14 08:50:03;;;;;;;8.55;3.72;;;28.80;70.50;;;;;;4266796;27;20403;-83
2022/08/14 08:52:07;;;;;;;8.77;3.95;;;28.80;70.50;;;;;;4265980;27;20050;-83
2022/08/14 08:54:12;;;;;;;6.72;3.50;;;28.90;70.40;;;;;;4266210;27;20039;-82
2022/08/14 08:56:14;;;;;;;6.25;3.53;;;29.10;69.50;;;;;;4247765;27;20521;-84
2022/08/14 08:58:19;;;;;;;4.97;3.75;;;29.30;69.20;;;;;;4247609;27;20039;-82
2022/08/14 09:00:20;;;;;;;4.45;3.35;;;29.40;68.40;;;;;;4248240;27;20047;-82
2022/08/14 09:02:25;;;;;;;6.05;3.67;;;29.60;68.20;;;;;;4266431;27;20042;-83
2022/08/14 09:04:43;;;;;;;5.05;3.72;;;29.90;68.10;;;;;;4266325;27;20494;-83
2022/08/14 09:06:49;;;;;;;5.07;4.45;;;30.00;67.00;;;;;;4227971;28;20039;-84
2022/08/14 09:08:54;;;;;;;5.57;3.90;;;30.10;66.70;;;;;;4248853;27;20039;-82
2022/08/14 09:11:05;;;;;;;4.55;3.70;;;30.30;66.30;;;;;;4230791;28;20051;-83
2022/08/14 09:13:11;;;;;;;4.05;3.58;;;30.50;66.20;;;;;;4230694;28;20055;-82
2022/08/14 09:15:14;;;;;;;4.55;3.85;;;30.60;65.90;;;;;;4213873;28;20207;-83
2022/08/14 09:17:17;;;;;;;4.72;3.30;;;30.60;65.00;;;;;;4248591;27;20432;-83
2022/08/14 09:19:21;;;;;;;4.00;3.25;;;30.70;65.30;;;;;;4213682;28;20481;-83
2022/08/14 09:21:24;;;;;;;4.70;3.40;;;30.70;64.40;;;;;;4249020;27;20055;-83
2022/08/14 09:23:30;;;;;;;6.65;3.25;;;30.60;64.10;;;;;;4248770;27;20142;-83
2022/08/14 09:25:40;;;;;;;7.03;3.42;;;30.60;64.20;;;;;;4248602;27;20540;-83
2022/08/14 09:27:44;;;;;;;5.68;3.40;;;31.00;64.40;;;;;;4249623;27;20046;-83
2022/08/14 09:29:51;;;;;;;3.90;3.47;;;31.20;63.10;;;;;;4248909;27;20045;-83
2022/08/14 09:32:03;;;;;;;6.03;3.65;;;31.10;62.60;;;;;;4248669;27;20043;-82
2022/08/14 09:34:44;;;;;;;4.32;3.28;;;31.20;62.70;;;;;;4235928;27;20054;-82
2022/08/14 09:36:56;;;;;;;6.90;4.00;;;31.50;62.40;;;;;;4265849;27;20498;-83
2022/08/14 09:39:37;;;;;;;3.75;3.30;;;31.50;61.70;;;;;;4265815;27;20406;-83
2022/08/14 09:42:32;;;;;;;4.28;3.33;;;31.60;60.70;;;;;;4265358;27;20046;-83
2022/08/14 09:44:54;;;;;;;3.90;3.50;;;31.70;60.90;;;;;;4262848;27;20042;-83
2022/08/14 09:46:57;;;;;;;4.30;3.55;;;31.80;58.80;;;;;;4246927;27;20072;-83
2022/08/14 09:48:59;;;;;;;4.15;3.20;;;31.70;59.40;;;;;;4246849;27;20142;-83
2022/08/14 09:51:02;;;;;;;4.40;3.60;;;31.70;59.20;;;;;;4246505;27;20426;-83
2022/08/14 09:53:07;;;;;;;4.70;3.40;;;31.80;59.10;;;;;;4264767;27;20102;-83
2022/08/14 09:55:17;;;;;;;5.88;3.08;;;32.10;58.90;;;;;;4246947;27;20062;-83
2022/08/14 09:57:27;;;;;;;5.40;3.67;;;32.40;58.20;;;;;;4246422;27;20108;-83
2022/08/14 09:59:53;;;;;;;5.32;3.88;;;32.40;57.30;;;;;;4265277;27;20051;-84
2022/08/14 10:01:56;;;;;;;4.25;3.20;;;32.10;56.40;;;;;;4264566;27;20136;-83
2022/08/14 10:03:59;;;;;;;4.75;3.22;;;31.80;57.70;;;;;;4264247;27;20043;-83
2022/08/14 10:06:12;;;;;;;5.85;3.40;;;31.80;57.90;;;;;;4244567;27;20063;-83
2022/08/14 10:08:19;;;;;;;4.70;3.70;;;31.90;58.20;;;;;;4264810;27;20046;-83
2022/08/14 10:10:37;;;;;;;4.68;3.03;;;31.80;58.00;;;;;;4265331;27;20043;-83
2022/08/14 10:12:42;;;;;;;5.40;3.57;;;32.20;57.70;;;;;;4265296;27;20098;-83
2022/08/14 10:14:44;;;;;;;6.97;3.40;;;32.30;58.50;;;;;;4264197;27;20451;-84
2022/08/14 10:16:53;;;;;;;4.47;3.63;;;32.60;58.30;;;;;;4264751;27;20126;-83
2022/08/14 10:19:08;;;;;;;4.70;3.85;;;32.80;57.00;;;;;;4265495;27;20050;-83
2022/08/14 10:21:16;;;;;;;4.35;3.42;;;33.20;56.20;;;;;;4264682;27;20073;-83
2022/08/14 10:23:23;;;;;;;3.67;3.30;;;33.30;55.60;;;;;;4264744;27;20046;-84
2022/08/14 10:25:43;;;;;;;6.72;4.47;;;33.30;55.80;;;;;;4265984;27;20043;-83
2022/08/14 10:27:57;;;;;;;4.43;3.90;;;33.50;54.50;;;;;;4261654;27;20078;-83
2022/08/14 10:30:15;;;;;;;9.15;4.40;;;33.40;54.60;;;;;;4228811;28;20096;-84
2022/08/14 10:32:17;;;;;;;7.15;3.60;;;33.50;53.10;;;;;;4226125;28;20120;-83
2022/08/14 10:34:29;;;;;;;4.20;3.38;;;33.40;54.30;;;;;;4246862;28;20407;-83
2022/08/14 10:36:38;;;;;;;5.30;3.42;;;33.00;54.00;;;;;;4234152;28;20122;-84
2022/08/14 10:38:41;;;;;;;4.15;3.00;;;32.70;54.00;;;;;;4245553;28;20045;-83
2022/08/14 10:40:44;;;;;;;4.10;3.42;;;32.80;54.20;;;;;;4245514;28;20534;-83
2022/08/14 10:42:47;;;;;;;6.38;3.13;;;32.90;54.00;;;;;;4232739;28;20503;-83
2022/08/14 10:44:53;;;;;;;3.78;3.10;;;33.20;53.70;;;;;;4246932;28;20087;-83
2022/08/14 10:47:01;;;;;;;6.40;3.38;;;33.40;53.80;;;;;;4229230;28;20434;-83
2022/08/14 10:49:05;;;;;;;4.25;3.20;;;33.70;54.30;;;;;;4237706;28;20036;-84
2022/08/14 10:51:07;;;;;;;4.25;2.88;;;33.70;53.30;;;;;;4246232;28;20491;-84
2022/08/14 10:53:15;;;;;;;3.28;2.92;;;33.80;54.10;;;;;;4264831;27;20035;-83
2022/08/14 10:55:18;;;;;;;3.67;3.30;;;34.00;52.80;;;;;;4265143;27;20053;-84
2022/08/14 10:57:25;;;;;;;4.93;3.45;;;33.90;52.30;;;;;;4246485;28;20043;-84